sensor_id;sensor_type;location;lat;lon;timestamp;P1;durP1;ratioP1;P2;durP2;ratioP2
25073;SDS011;13066;52.042;5.648;2023-04-09T00:01:20;51.58;;;28.60;;
25073;SDS011;13066;52.042;5.648;2023-04-09T00:03:49;46.80;;;26.45;;
25073;SDS011;13066;52.042;5.648;2023-04-09T00:06:18;43.45;;;26.40;;
25073;SDS011;13066;52.042;5.648;2023-04-09T00:08:46;46.33;;;27.23;;
25073;SDS011;13066;52.042;5.648;2023-04-09T00:11:13;48.65;;;26.63;;
25073;SDS011;13066;52.042;5.648;2023-04-09T00:13:41;43.80;;;27.23;;
25073;SDS011;13066;52.042;5.648;2023-04-09T00:16:09;45.13;;;27.05;;
25073;SDS011;13066;52.042;5.648;2023-04-09T00:18:37;46.50;;;27.50;;
25073;SDS011;13066;52.042;5.648;2023-04-09T00:21:06;47.78;;;26.85;;
25073;SDS011;13066;52.042;5.648;2023-04-09T00:23:34;45.95;;;27.67;;
25073;SDS011;13066;52.042;5.648;2023-04-09T00:26:02;54.25;;;28.85;;
25073;SDS011;13066;52.042;5.648;2023-04-09T00:28:31;45.17;;;27.90;;
25073;SDS011;13066;52.042;5.648;2023-04-09T00:30:59;44.22;;;26.55;;
25073;SDS011;13066;52.042;5.648;2023-04-09T00:33:27;44.75;;;26.80;;
25073;SDS011;13066;52.042;5.648;2023-04-09T00:35:55;44.95;;;25.90;;
25073;SDS011;13066;52.042;5.648;2023-04-09T00:38:24;46.28;;;26.35;;
25073;SDS011;13066;52.042;5.648;2023-04-09T00:40:52;45.03;;;25.95;;
25073;SDS011;13066;52.042;5.648;2023-04-09T00:43:20;44.80;;;27.02;;
25073;SDS011;13066;52.042;5.648;2023-04-09T00:45:48;53.63;;;27.67;;
25073;SDS011;13066;52.042;5.648;2023-04-09T00:48:16;45.83;;;26.88;;
25073;SDS011;13066;52.042;5.648;2023-04-09T00:50:44;42.63;;;25.40;;
25073;SDS011;13066;52.042;5.648;2023-04-09T00:53:12;44.53;;;26.48;;
25073;SDS011;13066;52.042;5.648;2023-04-09T00:55:43;44.28;;;26.42;;
25073;SDS011;13066;52.042;5.648;2023-04-09T00:58:11;43.67;;;25.80;;
25073;SDS011;13066;52.042;5.648;2023-04-09T01:00:40;49.88;;;27.00;;
25073;SDS011;13066;52.042;5.648;2023-04-09T01:03:08;47.40;;;27.38;;
25073;SDS011;13066;52.042;5.648;2023-04-09T01:05:37;49.33;;;26.70;;
25073;SDS011;13066;52.042;5.648;2023-04-09T01:08:15;45.45;;;26.05;;
25073;SDS011;13066;52.042;5.648;2023-04-09T01:10:50;44.47;;;25.75;;
25073;SDS011;13066;52.042;5.648;2023-04-09T01:13:22;47.80;;;27.15;;
25073;SDS011;13066;52.042;5.648;2023-04-09T01:15:58;47.53;;;26.67;;
25073;SDS011;13066;52.042;5.648;2023-04-09T01:18:32;45.42;;;26.38;;
25073;SDS011;13066;52.042;5.648;2023-04-09T01:21:04;45.70;;;27.20;;
25073;SDS011;13066;52.042;5.648;2023-04-09T01:23:36;44.20;;;26.52;;
25073;SDS011;13066;52.042;5.648;2023-04-09T01:26:17;48.70;;;26.23;;
25073;SDS011;13066;52.042;5.648;2023-04-09T01:28:54;45.40;;;26.67;;
25073;SDS011;13066;52.042;5.648;2023-04-09T01:31:25;42.75;;;25.55;;
25073;SDS011;13066;52.042;5.648;2023-04-09T01:33:55;47.80;;;27.15;;
25073;SDS011;13066;52.042;5.648;2023-04-09T01:36:23;46.85;;;26.92;;
25073;SDS011;13066;52.042;5.648;2023-04-09T01:38:52;47.30;;;26.08;;
25073;SDS011;13066;52.042;5.648;2023-04-09T01:41:22;48.92;;;27.27;;
25073;SDS011;13066;52.042;5.648;2023-04-09T01:43:51;49.33;;;27.63;;
25073;SDS011;13066;52.042;5.648;2023-04-09T01:46:21;44.45;;;26.95;;
25073;SDS011;13066;52.042;5.648;2023-04-09T01:48:50;49.15;;;28.00;;
25073;SDS011;13066;52.042;5.648;2023-04-09T01:51:19;45.63;;;26.25;;
25073;SDS011;13066;52.042;5.648;2023-04-09T01:53:47;48.00;;;27.65;;
25073;SDS011;13066;52.042;5.648;2023-04-09T01:56:15;48.42;;;27.45;;
25073;SDS011;13066;52.042;5.648;2023-04-09T01:58:43;48.17;;;27.10;;
25073;SDS011;13066;52.042;5.648;2023-04-09T02:01:13;49.67;;;27.10;;
25073;SDS011;13066;52.042;5.648;2023-04-09T02:03:45;50.45;;;27.90;;
25073;SDS011;13066;52.042;5.648;2023-04-09T02:06:19;44.75;;;28.30;;
25073;SDS011;13066;52.042;5.648;2023-04-09T02:08:53;46.38;;;26.08;;
25073;SDS011;13066;52.042;5.648;2023-04-09T02:11:21;46.78;;;26.35;;
25073;SDS011;13066;52.042;5.648;2023-04-09T02:13:50;45.28;;;27.98;;
25073;SDS011;13066;52.042;5.648;2023-04-09T02:16:20;46.72;;;27.55;;
25073;SDS011;13066;52.042;5.648;2023-04-09T02:18:51;46.60;;;26.23;;
25073;SDS011;13066;52.042;5.648;2023-04-09T02:21:20;45.50;;;26.35;;
25073;SDS011;13066;52.042;5.648;2023-04-09T02:23:48;49.45;;;27.42;;
25073;SDS011;13066;52.042;5.648;2023-04-09T02:26:16;46.80;;;26.95;;
25073;SDS011;13066;52.042;5.648;2023-04-09T02:28:44;45.53;;;26.90;;
25073;SDS011;13066;52.042;5.648;2023-04-09T02:31:12;48.92;;;27.00;;
25073;SDS011;13066;52.042;5.648;2023-04-09T02:33:42;47.17;;;27.52;;
25073;SDS011;13066;52.042;5.648;2023-04-09T02:36:10;46.15;;;26.58;;
25073;SDS011;13066;52.042;5.648;2023-04-09T02:38:39;43.55;;;25.45;;
25073;SDS011;13066;52.042;5.648;2023-04-09T02:41:07;45.25;;;26.52;;
25073;SDS011;13066;52.042;5.648;2023-04-09T02:43:35;43.03;;;25.83;;
25073;SDS011;13066;52.042;5.648;2023-04-09T02:46:03;44.50;;;26.13;;
25073;SDS011;13066;52.042;5.648;2023-04-09T02:48:33;44.00;;;25.70;;
25073;SDS011;13066;52.042;5.648;2023-04-09T02:51:04;42.28;;;25.88;;
25073;SDS011;13066;52.042;5.648;2023-04-09T02:53:33;47.40;;;25.65;;
25073;SDS011;13066;52.042;5.648;2023-04-09T02:56:03;47.75;;;26.35;;
25073;SDS011;13066;52.042;5.648;2023-04-09T02:58:31;43.40;;;25.58;;
25073;SDS011;13066;52.042;5.648;2023-04-09T03:00:59;46.15;;;26.10;;
25073;SDS011;13066;52.042;5.648;2023-04-09T03:03:27;48.50;;;26.50;;
25073;SDS011;13066;52.042;5.648;2023-04-09T03:05:56;45.78;;;26.35;;
25073;SDS011;13066;52.042;5.648;2023-04-09T03:08:26;42.33;;;25.17;;
25073;SDS011;13066;52.042;5.648;2023-04-09T03:10:54;44.85;;;25.38;;
25073;SDS011;13066;52.042;5.648;2023-04-09T03:13:22;44.78;;;25.85;;
25073;SDS011;13066;52.042;5.648;2023-04-09T03:15:50;44.08;;;25.42;;
25073;SDS011;13066;52.042;5.648;2023-04-09T03:18:18;44.47;;;24.63;;
25073;SDS011;13066;52.042;5.648;2023-04-09T03:20:46;40.70;;;24.55;;
25073;SDS011;13066;52.042;5.648;2023-04-09T03:23:14;43.72;;;24.92;;
25073;SDS011;13066;52.042;5.648;2023-04-09T03:25:46;43.20;;;25.40;;
25073;SDS011;13066;52.042;5.648;2023-04-09T03:28:16;43.92;;;25.98;;
25073;SDS011;13066;52.042;5.648;2023-04-09T03:30:50;48.25;;;27.42;;
25073;SDS011;13066;52.042;5.648;2023-04-09T03:33:18;39.85;;;25.05;;
25073;SDS011;13066;52.042;5.648;2023-04-09T03:35:52;44.95;;;26.17;;
25073;SDS011;13066;52.042;5.648;2023-04-09T03:38:29;42.67;;;25.10;;
25073;SDS011;13066;52.042;5.648;2023-04-09T03:41:01;40.83;;;24.40;;
25073;SDS011;13066;52.042;5.648;2023-04-09T03:43:31;40.17;;;24.52;;
25073;SDS011;13066;52.042;5.648;2023-04-09T03:45:59;41.28;;;25.48;;
25073;SDS011;13066;52.042;5.648;2023-04-09T03:48:27;42.45;;;24.73;;
25073;SDS011;13066;52.042;5.648;2023-04-09T03:50:56;40.70;;;25.10;;
25073;SDS011;13066;52.042;5.648;2023-04-09T03:53:32;38.92;;;23.83;;
25073;SDS011;13066;52.042;5.648;2023-04-09T03:56:05;44.15;;;26.55;;
25073;SDS011;13066;52.042;5.648;2023-04-09T03:58:34;44.58;;;25.80;;
25073;SDS011;13066;52.042;5.648;2023-04-09T04:01:02;46.38;;;25.45;;
25073;SDS011;13066;52.042;5.648;2023-04-09T04:03:50;41.10;;;24.27;;
25073;SDS011;13066;52.042;5.648;2023-04-09T04:06:22;42.20;;;25.02;;
25073;SDS011;13066;52.042;5.648;2023-04-09T04:09:09;42.53;;;25.35;;
25073;SDS011;13066;52.042;5.648;2023-04-09T04:11:47;41.55;;;25.55;;
25073;SDS011;13066;52.042;5.648;2023-04-09T04:14:17;44.17;;;25.60;;
25073;SDS011;13066;52.042;5.648;2023-04-09T04:16:51;43.00;;;25.85;;
25073;SDS011;13066;52.042;5.648;2023-04-09T04:19:24;45.35;;;26.27;;
25073;SDS011;13066;52.042;5.648;2023-04-09T04:21:52;42.55;;;25.55;;
25073;SDS011;13066;52.042;5.648;2023-04-09T04:24:21;42.83;;;26.27;;
25073;SDS011;13066;52.042;5.648;2023-04-09T04:26:50;43.35;;;25.75;;
25073;SDS011;13066;52.042;5.648;2023-04-09T04:29:20;43.85;;;25.45;;
25073;SDS011;13066;52.042;5.648;2023-04-09T04:31:57;45.22;;;27.20;;
25073;SDS011;13066;52.042;5.648;2023-04-09T04:34:31;43.00;;;26.77;;
25073;SDS011;13066;52.042;5.648;2023-04-09T04:37:07;45.50;;;26.25;;
25073;SDS011;13066;52.042;5.648;2023-04-09T04:39:35;44.45;;;27.10;;
25073;SDS011;13066;52.042;5.648;2023-04-09T04:42:11;45.55;;;28.27;;
25073;SDS011;13066;52.042;5.648;2023-04-09T04:44:39;52.13;;;31.45;;
25073;SDS011;13066;52.042;5.648;2023-04-09T04:47:13;54.63;;;32.13;;
25073;SDS011;13066;52.042;5.648;2023-04-09T04:49:41;54.22;;;31.67;;
25073;SDS011;13066;52.042;5.648;2023-04-09T04:52:09;51.22;;;29.50;;
25073;SDS011;13066;52.042;5.648;2023-04-09T04:54:42;52.22;;;29.90;;
25073;SDS011;13066;52.042;5.648;2023-04-09T04:57:16;50.05;;;30.45;;
25073;SDS011;13066;52.042;5.648;2023-04-09T04:59:44;50.33;;;30.90;;
25073;SDS011;13066;52.042;5.648;2023-04-09T05:02:16;54.58;;;30.88;;
25073;SDS011;13066;52.042;5.648;2023-04-09T05:05:04;54.72;;;30.65;;
25073;SDS011;13066;52.042;5.648;2023-04-09T05:07:38;54.10;;;31.65;;
25073;SDS011;13066;52.042;5.648;2023-04-09T05:10:07;56.55;;;32.05;;
25073;SDS011;13066;52.042;5.648;2023-04-09T05:12:40;55.72;;;31.25;;
25073;SDS011;13066;52.042;5.648;2023-04-09T05:15:10;49.53;;;29.92;;
25073;SDS011;13066;52.042;5.648;2023-04-09T05:17:41;54.63;;;30.85;;
25073;SDS011;13066;52.042;5.648;2023-04-09T05:20:10;53.40;;;31.08;;
25073;SDS011;13066;52.042;5.648;2023-04-09T05:22:48;50.25;;;29.52;;
25073;SDS011;13066;52.042;5.648;2023-04-09T05:25:19;48.72;;;28.65;;
25073;SDS011;13066;52.042;5.648;2023-04-09T05:27:48;47.95;;;28.27;;
25073;SDS011;13066;52.042;5.648;2023-04-09T05:30:16;42.60;;;25.15;;
25073;SDS011;13066;52.042;5.648;2023-04-09T05:32:45;42.50;;;26.02;;
25073;SDS011;13066;52.042;5.648;2023-04-09T05:35:14;44.15;;;25.35;;
25073;SDS011;13066;52.042;5.648;2023-04-09T05:37:43;42.35;;;24.33;;
25073;SDS011;13066;52.042;5.648;2023-04-09T05:40:11;42.97;;;25.08;;
25073;SDS011;13066;52.042;5.648;2023-04-09T05:42:40;37.40;;;23.40;;
25073;SDS011;13066;52.042;5.648;2023-04-09T05:45:15;40.70;;;25.05;;
25073;SDS011;13066;52.042;5.648;2023-04-09T05:47:49;41.80;;;25.65;;
25073;SDS011;13066;52.042;5.648;2023-04-09T05:50:20;39.50;;;24.65;;
25073;SDS011;13066;52.042;5.648;2023-04-09T05:52:51;35.75;;;23.42;;
25073;SDS011;13066;52.042;5.648;2023-04-09T05:55:24;40.72;;;23.92;;
25073;SDS011;13066;52.042;5.648;2023-04-09T05:57:57;39.05;;;23.25;;
25073;SDS011;13066;52.042;5.648;2023-04-09T06:00:26;44.83;;;24.60;;
25073;SDS011;13066;52.042;5.648;2023-04-09T06:02:54;40.45;;;23.95;;
25073;SDS011;13066;52.042;5.648;2023-04-09T06:05:25;40.70;;;23.08;;
25073;SDS011;13066;52.042;5.648;2023-04-09T06:07:53;35.38;;;22.85;;
25073;SDS011;13066;52.042;5.648;2023-04-09T06:10:22;43.33;;;24.15;;
25073;SDS011;13066;52.042;5.648;2023-04-09T06:12:51;38.78;;;23.67;;
25073;SDS011;13066;52.042;5.648;2023-04-09T06:15:19;38.30;;;23.60;;
25073;SDS011;13066;52.042;5.648;2023-04-09T06:17:48;37.47;;;22.00;;
25073;SDS011;13066;52.042;5.648;2023-04-09T06:20:16;35.78;;;21.88;;
25073;SDS011;13066;52.042;5.648;2023-04-09T06:22:44;32.83;;;20.45;;
25073;SDS011;13066;52.042;5.648;2023-04-09T06:25:12;41.40;;;22.83;;
25073;SDS011;13066;52.042;5.648;2023-04-09T06:27:40;36.97;;;20.80;;
25073;SDS011;13066;52.042;5.648;2023-04-09T06:30:08;33.60;;;19.88;;
25073;SDS011;13066;52.042;5.648;2023-04-09T06:32:37;38.35;;;22.13;;
25073;SDS011;13066;52.042;5.648;2023-04-09T06:35:20;38.67;;;21.90;;
25073;SDS011;13066;52.042;5.648;2023-04-09T06:37:48;34.50;;;21.65;;
25073;SDS011;13066;52.042;5.648;2023-04-09T06:40:16;35.33;;;20.70;;
25073;SDS011;13066;52.042;5.648;2023-04-09T06:42:47;37.28;;;21.85;;
25073;SDS011;13066;52.042;5.648;2023-04-09T06:45:21;36.45;;;21.23;;
25073;SDS011;13066;52.042;5.648;2023-04-09T06:47:49;38.63;;;21.13;;
25073;SDS011;13066;52.042;5.648;2023-04-09T06:50:17;35.55;;;21.17;;
25073;SDS011;13066;52.042;5.648;2023-04-09T06:52:46;37.17;;;21.38;;
25073;SDS011;13066;52.042;5.648;2023-04-09T06:55:14;34.72;;;21.17;;
25073;SDS011;13066;52.042;5.648;2023-04-09T06:57:42;39.47;;;21.33;;
25073;SDS011;13066;52.042;5.648;2023-04-09T07:00:10;38.75;;;21.38;;
25073;SDS011;13066;52.042;5.648;2023-04-09T07:02:39;39.80;;;21.83;;
25073;SDS011;13066;52.042;5.648;2023-04-09T07:05:07;41.78;;;23.27;;
25073;SDS011;13066;52.042;5.648;2023-04-09T07:07:36;38.55;;;22.40;;
25073;SDS011;13066;52.042;5.648;2023-04-09T07:10:06;41.88;;;22.60;;
25073;SDS011;13066;52.042;5.648;2023-04-09T07:12:35;36.33;;;21.67;;
25073;SDS011;13066;52.042;5.648;2023-04-09T07:15:04;43.33;;;21.80;;
25073;SDS011;13066;52.042;5.648;2023-04-09T07:17:34;37.80;;;21.48;;
25073;SDS011;13066;52.042;5.648;2023-04-09T07:20:02;33.92;;;21.52;;
25073;SDS011;13066;52.042;5.648;2023-04-09T07:22:32;42.85;;;21.95;;
25073;SDS011;13066;52.042;5.648;2023-04-09T07:25:00;41.20;;;22.48;;
25073;SDS011;13066;52.042;5.648;2023-04-09T07:27:29;38.97;;;22.90;;
25073;SDS011;13066;52.042;5.648;2023-04-09T07:29:58;41.70;;;22.92;;
25073;SDS011;13066;52.042;5.648;2023-04-09T07:32:26;41.45;;;22.90;;
25073;SDS011;13066;52.042;5.648;2023-04-09T07:34:54;40.65;;;23.15;;
25073;SDS011;13066;52.042;5.648;2023-04-09T07:37:23;40.10;;;22.88;;
25073;SDS011;13066;52.042;5.648;2023-04-09T07:39:50;37.85;;;22.17;;
25073;SDS011;13066;52.042;5.648;2023-04-09T07:42:18;35.95;;;21.63;;
25073;SDS011;13066;52.042;5.648;2023-04-09T07:44:48;36.83;;;22.67;;
25073;SDS011;13066;52.042;5.648;2023-04-09T07:47:17;36.50;;;22.50;;
25073;SDS011;13066;52.042;5.648;2023-04-09T07:49:44;35.97;;;22.52;;
25073;SDS011;13066;52.042;5.648;2023-04-09T07:52:12;38.33;;;23.90;;
25073;SDS011;13066;52.042;5.648;2023-04-09T07:54:41;40.42;;;21.92;;
25073;SDS011;13066;52.042;5.648;2023-04-09T07:57:09;38.47;;;22.67;;
25073;SDS011;13066;52.042;5.648;2023-04-09T07:59:36;40.85;;;24.08;;
25073;SDS011;13066;52.042;5.648;2023-04-09T08:02:06;37.40;;;22.63;;
25073;SDS011;13066;52.042;5.648;2023-04-09T08:04:34;37.40;;;22.45;;
25073;SDS011;13066;52.042;5.648;2023-04-09T08:07:02;40.20;;;22.40;;
25073;SDS011;13066;52.042;5.648;2023-04-09T08:09:30;34.88;;;22.38;;
25073;SDS011;13066;52.042;5.648;2023-04-09T08:11:58;38.55;;;23.80;;
25073;SDS011;13066;52.042;5.648;2023-04-09T08:14:26;41.03;;;23.02;;
25073;SDS011;13066;52.042;5.648;2023-04-09T08:16:54;38.13;;;22.02;;
25073;SDS011;13066;52.042;5.648;2023-04-09T08:19:23;36.08;;;22.25;;
25073;SDS011;13066;52.042;5.648;2023-04-09T08:21:51;35.22;;;20.23;;
25073;SDS011;13066;52.042;5.648;2023-04-09T08:24:19;34.17;;;20.13;;
25073;SDS011;13066;52.042;5.648;2023-04-09T08:26:47;30.27;;;18.85;;
25073;SDS011;13066;52.042;5.648;2023-04-09T08:29:15;28.75;;;17.88;;
25073;SDS011;13066;52.042;5.648;2023-04-09T08:31:43;31.45;;;18.73;;
25073;SDS011;13066;52.042;5.648;2023-04-09T08:34:11;33.63;;;19.45;;
25073;SDS011;13066;52.042;5.648;2023-04-09T08:36:45;31.55;;;19.02;;
25073;SDS011;13066;52.042;5.648;2023-04-09T08:39:14;29.50;;;18.17;;
25073;SDS011;13066;52.042;5.648;2023-04-09T08:41:42;29.95;;;17.67;;
25073;SDS011;13066;52.042;5.648;2023-04-09T08:44:10;31.02;;;18.15;;
25073;SDS011;13066;52.042;5.648;2023-04-09T08:46:38;31.05;;;19.27;;
25073;SDS011;13066;52.042;5.648;2023-04-09T08:49:07;26.92;;;17.40;;
25073;SDS011;13066;52.042;5.648;2023-04-09T08:51:35;29.23;;;18.92;;
25073;SDS011;13066;52.042;5.648;2023-04-09T08:54:06;31.98;;;18.08;;
25073;SDS011;13066;52.042;5.648;2023-04-09T08:56:33;30.95;;;18.02;;
25073;SDS011;13066;52.042;5.648;2023-04-09T08:59:01;29.58;;;18.70;;
25073;SDS011;13066;52.042;5.648;2023-04-09T09:01:30;26.90;;;17.75;;
25073;SDS011;13066;52.042;5.648;2023-04-09T09:03:59;29.13;;;18.42;;
25073;SDS011;13066;52.042;5.648;2023-04-09T09:06:30;29.48;;;18.15;;
25073;SDS011;13066;52.042;5.648;2023-04-09T09:09:00;30.73;;;18.33;;
25073;SDS011;13066;52.042;5.648;2023-04-09T09:11:30;31.38;;;18.98;;
25073;SDS011;13066;52.042;5.648;2023-04-09T09:13:59;32.63;;;18.30;;
25073;SDS011;13066;52.042;5.648;2023-04-09T09:16:28;29.48;;;18.27;;
25073;SDS011;13066;52.042;5.648;2023-04-09T09:18:56;29.08;;;17.33;;
25073;SDS011;13066;52.042;5.648;2023-04-09T09:21:26;30.02;;;17.40;;
25073;SDS011;13066;52.042;5.648;2023-04-09T09:23:55;27.58;;;17.40;;
25073;SDS011;13066;52.042;5.648;2023-04-09T09:26:24;33.10;;;18.38;;
25073;SDS011;13066;52.042;5.648;2023-04-09T09:28:54;28.98;;;17.65;;
25073;SDS011;13066;52.042;5.648;2023-04-09T09:31:24;26.75;;;16.60;;
25073;SDS011;13066;52.042;5.648;2023-04-09T09:33:52;25.13;;;15.95;;
25073;SDS011;13066;52.042;5.648;2023-04-09T09:36:30;29.25;;;17.20;;
25073;SDS011;13066;52.042;5.648;2023-04-09T09:38:59;28.42;;;17.85;;
25073;SDS011;13066;52.042;5.648;2023-04-09T09:41:29;27.55;;;17.67;;
25073;SDS011;13066;52.042;5.648;2023-04-09T09:43:58;27.02;;;16.35;;
25073;SDS011;13066;52.042;5.648;2023-04-09T09:46:26;24.35;;;15.32;;
25073;SDS011;13066;52.042;5.648;2023-04-09T09:48:55;25.33;;;16.27;;
25073;SDS011;13066;52.042;5.648;2023-04-09T09:51:24;24.48;;;14.75;;
25073;SDS011;13066;52.042;5.648;2023-04-09T09:53:57;24.17;;;15.03;;
25073;SDS011;13066;52.042;5.648;2023-04-09T09:56:29;28.58;;;15.02;;
25073;SDS011;13066;52.042;5.648;2023-04-09T09:59:05;23.95;;;15.18;;
25073;SDS011;13066;52.042;5.648;2023-04-09T10:01:34;23.40;;;13.95;;
25073;SDS011;13066;52.042;5.648;2023-04-09T10:04:03;27.23;;;14.70;;
25073;SDS011;13066;52.042;5.648;2023-04-09T10:06:33;20.83;;;13.43;;
25073;SDS011;13066;52.042;5.648;2023-04-09T10:09:02;23.60;;;15.40;;
25073;SDS011;13066;52.042;5.648;2023-04-09T10:11:32;23.92;;;14.52;;
25073;SDS011;13066;52.042;5.648;2023-04-09T10:14:03;22.70;;;14.70;;
25073;SDS011;13066;52.042;5.648;2023-04-09T10:16:31;25.17;;;15.15;;
25073;SDS011;13066;52.042;5.648;2023-04-09T10:19:00;20.75;;;13.13;;
25073;SDS011;13066;52.042;5.648;2023-04-09T10:21:31;19.92;;;12.50;;
25073;SDS011;13066;52.042;5.648;2023-04-09T10:24:03;19.65;;;11.80;;
25073;SDS011;13066;52.042;5.648;2023-04-09T10:26:33;22.30;;;12.10;;
25073;SDS011;13066;52.042;5.648;2023-04-09T10:29:04;20.98;;;12.30;;
25073;SDS011;13066;52.042;5.648;2023-04-09T10:31:46;22.95;;;12.50;;
25073;SDS011;13066;52.042;5.648;2023-04-09T10:34:15;22.10;;;14.32;;
25073;SDS011;13066;52.042;5.648;2023-04-09T10:36:44;24.58;;;14.40;;
25073;SDS011;13066;52.042;5.648;2023-04-09T10:39:13;23.30;;;14.07;;
25073;SDS011;13066;52.042;5.648;2023-04-09T10:41:41;23.05;;;13.95;;
25073;SDS011;13066;52.042;5.648;2023-04-09T10:44:20;23.08;;;13.38;;
25073;SDS011;13066;52.042;5.648;2023-04-09T10:46:51;22.83;;;13.63;;
25073;SDS011;13066;52.042;5.648;2023-04-09T10:49:20;22.13;;;14.30;;
25073;SDS011;13066;52.042;5.648;2023-04-09T10:51:52;22.65;;;14.60;;
25073;SDS011;13066;52.042;5.648;2023-04-09T10:54:37;22.42;;;13.60;;
25073;SDS011;13066;52.042;5.648;2023-04-09T10:57:09;24.50;;;13.88;;
25073;SDS011;13066;52.042;5.648;2023-04-09T10:59:41;23.00;;;14.32;;
25073;SDS011;13066;52.042;5.648;2023-04-09T11:02:28;21.38;;;14.55;;
25073;SDS011;13066;52.042;5.648;2023-04-09T11:05:09;22.98;;;14.55;;
25073;SDS011;13066;52.042;5.648;2023-04-09T11:07:46;21.15;;;13.90;;
25073;SDS011;13066;52.042;5.648;2023-04-09T11:10:21;22.58;;;13.95;;
25073;SDS011;13066;52.042;5.648;2023-04-09T11:12:49;22.60;;;13.13;;
25073;SDS011;13066;52.042;5.648;2023-04-09T11:15:18;24.40;;;13.35;;
25073;SDS011;13066;52.042;5.648;2023-04-09T11:17:47;16.90;;;11.98;;
25073;SDS011;13066;52.042;5.648;2023-04-09T11:20:16;21.08;;;12.45;;
25073;SDS011;13066;52.042;5.648;2023-04-09T11:22:46;19.83;;;12.73;;
25073;SDS011;13066;52.042;5.648;2023-04-09T11:25:19;21.75;;;12.38;;
25073;SDS011;13066;52.042;5.648;2023-04-09T11:27:47;18.77;;;12.65;;
25073;SDS011;13066;52.042;5.648;2023-04-09T11:30:16;22.67;;;13.40;;
25073;SDS011;13066;52.042;5.648;2023-04-09T11:32:45;18.52;;;11.63;;
25073;SDS011;13066;52.042;5.648;2023-04-09T11:35:15;17.77;;;10.57;;
25073;SDS011;13066;52.042;5.648;2023-04-09T11:37:44;18.02;;;11.55;;
25073;SDS011;13066;52.042;5.648;2023-04-09T11:40:16;17.25;;;11.18;;
25073;SDS011;13066;52.042;5.648;2023-04-09T11:42:45;19.35;;;10.55;;
25073;SDS011;13066;52.042;5.648;2023-04-09T11:45:14;17.65;;;11.40;;
25073;SDS011;13066;52.042;5.648;2023-04-09T11:47:43;17.38;;;11.32;;
25073;SDS011;13066;52.042;5.648;2023-04-09T11:50:13;16.80;;;10.98;;
25073;SDS011;13066;52.042;5.648;2023-04-09T11:52:41;16.63;;;9.95;;
25073;SDS011;13066;52.042;5.648;2023-04-09T11:55:09;21.85;;;11.30;;
25073;SDS011;13066;52.042;5.648;2023-04-09T11:57:39;18.45;;;11.65;;
25073;SDS011;13066;52.042;5.648;2023-04-09T12:00:09;17.98;;;11.05;;
25073;SDS011;13066;52.042;5.648;2023-04-09T12:02:39;17.20;;;10.55;;
25073;SDS011;13066;52.042;5.648;2023-04-09T12:05:10;18.23;;;11.65;;
25073;SDS011;13066;52.042;5.648;2023-04-09T12:07:39;18.33;;;11.02;;
25073;SDS011;13066;52.042;5.648;2023-04-09T12:10:17;15.02;;;9.73;;
25073;SDS011;13066;52.042;5.648;2023-04-09T12:12:46;15.68;;;9.75;;
25073;SDS011;13066;52.042;5.648;2023-04-09T12:15:18;15.93;;;9.70;;
25073;SDS011;13066;52.042;5.648;2023-04-09T12:17:47;18.10;;;9.52;;
25073;SDS011;13066;52.042;5.648;2023-04-09T12:20:27;15.27;;;9.15;;
25073;SDS011;13066;52.042;5.648;2023-04-09T12:22:56;12.32;;;9.02;;
25073;SDS011;13066;52.042;5.648;2023-04-09T12:25:25;13.80;;;8.57;;
25073;SDS011;13066;52.042;5.648;2023-04-09T12:27:53;11.70;;;8.32;;
25073;SDS011;13066;52.042;5.648;2023-04-09T12:30:22;12.90;;;8.73;;
25073;SDS011;13066;52.042;5.648;2023-04-09T12:32:50;12.18;;;8.05;;
25073;SDS011;13066;52.042;5.648;2023-04-09T12:35:19;14.48;;;8.07;;
25073;SDS011;13066;52.042;5.648;2023-04-09T12:37:49;11.70;;;7.38;;
25073;SDS011;13066;52.042;5.648;2023-04-09T12:40:17;12.93;;;7.25;;
25073;SDS011;13066;52.042;5.648;2023-04-09T12:42:46;10.02;;;6.68;;
25073;SDS011;13066;52.042;5.648;2023-04-09T12:45:15;12.32;;;7.13;;
25073;SDS011;13066;52.042;5.648;2023-04-09T12:47:43;10.25;;;7.55;;
25073;SDS011;13066;52.042;5.648;2023-04-09T12:50:12;10.88;;;7.22;;
25073;SDS011;13066;52.042;5.648;2023-04-09T12:52:41;10.73;;;7.10;;
25073;SDS011;13066;52.042;5.648;2023-04-09T12:55:11;15.10;;;9.32;;
25073;SDS011;13066;52.042;5.648;2023-04-09T12:57:41;15.80;;;7.90;;
25073;SDS011;13066;52.042;5.648;2023-04-09T13:00:10;12.57;;;8.35;;
25073;SDS011;13066;52.042;5.648;2023-04-09T13:02:38;11.30;;;7.88;;
25073;SDS011;13066;52.042;5.648;2023-04-09T13:05:07;15.90;;;9.15;;
25073;SDS011;13066;52.042;5.648;2023-04-09T13:07:35;13.50;;;8.80;;
25073;SDS011;13066;52.042;5.648;2023-04-09T13:10:03;13.90;;;9.55;;
25073;SDS011;13066;52.042;5.648;2023-04-09T13:12:33;15.60;;;9.80;;
25073;SDS011;13066;52.042;5.648;2023-04-09T13:15:01;14.85;;;9.90;;
25073;SDS011;13066;52.042;5.648;2023-04-09T13:17:30;13.88;;;9.30;;
25073;SDS011;13066;52.042;5.648;2023-04-09T13:19:57;15.18;;;9.10;;
25073;SDS011;13066;52.042;5.648;2023-04-09T13:22:26;16.92;;;9.63;;
25073;SDS011;13066;52.042;5.648;2023-04-09T13:24:54;16.15;;;10.75;;
25073;SDS011;13066;52.042;5.648;2023-04-09T13:27:22;16.15;;;11.35;;
25073;SDS011;13066;52.042;5.648;2023-04-09T13:29:52;18.45;;;11.35;;
25073;SDS011;13066;52.042;5.648;2023-04-09T13:32:20;15.93;;;10.93;;
25073;SDS011;13066;52.042;5.648;2023-04-09T13:34:49;18.92;;;11.55;;
25073;SDS011;13066;52.042;5.648;2023-04-09T13:37:19;15.18;;;10.77;;
25073;SDS011;13066;52.042;5.648;2023-04-09T13:39:48;15.30;;;10.07;;
25073;SDS011;13066;52.042;5.648;2023-04-09T13:42:16;16.50;;;10.85;;
25073;SDS011;13066;52.042;5.648;2023-04-09T13:44:44;15.40;;;10.68;;
25073;SDS011;13066;52.042;5.648;2023-04-09T13:47:14;18.13;;;11.32;;
25073;SDS011;13066;52.042;5.648;2023-04-09T13:49:43;18.38;;;12.35;;
25073;SDS011;13066;52.042;5.648;2023-04-09T13:52:11;18.90;;;11.75;;
25073;SDS011;13066;52.042;5.648;2023-04-09T13:54:40;17.55;;;11.60;;
25073;SDS011;13066;52.042;5.648;2023-04-09T13:57:08;16.17;;;11.55;;
25073;SDS011;13066;52.042;5.648;2023-04-09T13:59:36;17.70;;;11.73;;
25073;SDS011;13066;52.042;5.648;2023-04-09T14:02:04;17.50;;;11.85;;
25073;SDS011;13066;52.042;5.648;2023-04-09T14:04:33;24.00;;;11.27;;
25073;SDS011;13066;52.042;5.648;2023-04-09T14:07:02;19.25;;;11.35;;
25073;SDS011;13066;52.042;5.648;2023-04-09T14:09:29;19.55;;;10.80;;
25073;SDS011;13066;52.042;5.648;2023-04-09T14:11:57;19.80;;;13.98;;
25073;SDS011;13066;52.042;5.648;2023-04-09T14:14:26;15.50;;;11.05;;
25073;SDS011;13066;52.042;5.648;2023-04-09T14:16:55;16.77;;;11.25;;
25073;SDS011;13066;52.042;5.648;2023-04-09T14:19:23;15.07;;;10.50;;
25073;SDS011;13066;52.042;5.648;2023-04-09T14:21:52;15.45;;;10.73;;
25073;SDS011;13066;52.042;5.648;2023-04-09T14:24:20;21.00;;;10.48;;
25073;SDS011;13066;52.042;5.648;2023-04-09T14:26:48;18.48;;;10.82;;
25073;SDS011;13066;52.042;5.648;2023-04-09T14:29:19;16.50;;;10.13;;
25073;SDS011;13066;52.042;5.648;2023-04-09T14:31:47;15.35;;;9.68;;
25073;SDS011;13066;52.042;5.648;2023-04-09T14:34:15;15.52;;;10.70;;
25073;SDS011;13066;52.042;5.648;2023-04-09T14:36:43;15.43;;;9.90;;
25073;SDS011;13066;52.042;5.648;2023-04-09T14:39:12;14.68;;;9.73;;